createdAt,value
2023-01-07T00:04:48.243Z,5.40
2023-01-07T00:09:50.511Z,2.40
2023-01-07T00:14:52.721Z,2.08
2023-01-07T00:19:56.852Z,2.10
2023-01-07T00:24:59.289Z,2.27
2023-01-07T00:30:01.465Z,2.45
2023-01-07T00:35:04.217Z,3.72
2023-01-07T00:45:10.246Z,2.13
2023-01-07T00:50:12.340Z,4.30
2023-01-07T00:55:17.328Z,2.33
2023-01-07T01:00:21.890Z,2.45
2023-01-07T01:05:24.168Z,3.93
2023-01-07T01:10:27.962Z,1.55
2023-01-07T01:15:30.057Z,1.57
2023-01-07T01:20:34.216Z,1.33
2023-01-07T01:25:36.795Z,2.97
2023-01-07T01:30:38.893Z,3.28
2023-01-07T01:35:42.910Z,2.63
2023-01-07T01:40:45.139Z,1.80
2023-01-07T01:45:50.439Z,2.50
2023-01-07T01:50:53.335Z,2.20
2023-01-07T01:56:07.181Z,3.50
2023-01-07T02:01:09.856Z,2.77
2023-01-07T02:06:22.933Z,3.07
2023-01-07T02:11:46.835Z,3.42
2023-01-07T02:16:52.365Z,7.30
2023-01-07T02:22:29.795Z,2.03
2023-01-07T02:28:07.278Z,1.67
2023-01-07T02:33:42.513Z,1.90
2023-01-07T02:39:23.219Z,1.73
2023-01-07T02:44:37.899Z,4.83
2023-01-07T02:49:40.327Z,2.37
2023-01-07T02:54:44.123Z,2.35
2023-01-07T02:59:52.891Z,2.50
2023-01-07T03:05:19.204Z,3.10
2023-01-07T03:10:39.925Z,2.75
2023-01-07T03:15:48.974Z,2.80
2023-01-07T03:20:57.211Z,3.95
2023-01-07T03:26:04.946Z,3.43
2023-01-07T03:31:12.022Z,3.50
2023-01-07T03:36:19.558Z,3.77
2023-01-07T03:41:40.520Z,3.70
2023-01-07T03:46:43.845Z,2.97
2023-01-07T03:51:46.812Z,3.73
2023-01-07T03:56:49.584Z,3.57
2023-01-07T04:01:51.892Z,3.08
2023-01-07T04:06:54.472Z,3.53
2023-01-07T04:17:00.350Z,3.00
2023-01-07T04:22:03.075Z,2.67
2023-01-07T04:27:06.349Z,3.60
2023-01-07T04:32:08.484Z,2.45
2023-01-07T04:37:10.874Z,7.97
2023-01-07T04:42:13.129Z,2.35
2023-01-07T04:47:15.555Z,2.50
2023-01-07T04:52:18.413Z,6.55
2023-01-07T04:57:21.021Z,3.80
2023-01-07T05:02:23.390Z,4.95
2023-01-07T05:07:26.639Z,3.65
2023-01-07T05:12:28.844Z,3.28
2023-01-07T05:17:31.323Z,3.72
2023-01-07T05:22:34.649Z,5.33
2023-01-07T05:27:38.015Z,3.60
2023-01-07T05:32:40.803Z,7.67
2023-01-07T05:37:43.488Z,3.50
2023-01-07T05:42:45.888Z,2.53
2023-01-07T05:47:49.577Z,3.83
2023-01-07T05:52:52.315Z,5.20
2023-01-07T06:02:56.374Z,3.53
2023-01-07T06:07:58.466Z,7.55
2023-01-07T06:13:02.110Z,4.75
2023-01-07T06:18:04.318Z,5.60
2023-01-07T06:23:06.487Z,4.50
2023-01-07T06:28:08.692Z,5.12
2023-01-07T06:33:10.774Z,6.40
2023-01-07T06:38:13.273Z,4.97
2023-01-07T06:43:15.431Z,3.62
2023-01-07T06:48:17.859Z,4.22
2023-01-07T06:53:19.988Z,5.80
2023-01-07T06:58:22.087Z,3.67
2023-01-07T07:03:24.293Z,4.55
2023-01-07T07:08:26.542Z,2.83
2023-01-07T07:13:28.649Z,3.03
2023-01-07T07:18:30.786Z,3.95
2023-01-07T07:23:32.918Z,6.85
2023-01-07T07:28:34.992Z,4.10
2023-01-07T07:33:37.544Z,2.72
2023-01-07T07:38:39.664Z,6.18
2023-01-07T07:43:41.730Z,4.32
2023-01-07T07:48:44.100Z,5.43
2023-01-07T07:53:46.182Z,4.65
2023-01-07T07:58:48.233Z,5.90
2023-01-07T08:03:50.611Z,4.60
2023-01-07T08:08:52.723Z,5.97
2023-01-07T08:13:54.813Z,5.37
2023-01-07T08:18:57.357Z,9.90
2023-01-07T08:24:00.152Z,5.50
2023-01-07T08:29:02.236Z,4.78
2023-01-07T08:34:04.615Z,4.45
2023-01-07T08:39:07.096Z,9.85
2023-01-07T08:49:11.772Z,3.40
2023-01-07T08:54:14.719Z,6.62
2023-01-07T08:59:17.056Z,4.90
2023-01-07T09:04:19.151Z,4.70
2023-01-07T09:09:22.506Z,4.62
2023-01-07T09:14:24.738Z,5.40
2023-01-07T09:19:27.236Z,6.15
2023-01-07T09:24:29.375Z,4.05
2023-01-07T09:29:31.496Z,4.10
2023-01-07T09:34:33.581Z,5.85
2023-01-07T09:39:36.158Z,3.85
2023-01-07T09:45:00.802Z,5.07
2023-01-07T09:50:14.255Z,5.07
2023-01-07T09:55:25.879Z,5.28
2023-01-07T10:00:29.818Z,4.43
2023-01-07T10:05:43.470Z,3.60
2023-01-07T10:11:28.253Z,6.10
2023-01-07T10:17:18.015Z,1.87
2023-01-07T10:22:25.877Z,2.42
2023-01-07T10:27:37.224Z,2.20
2023-01-07T10:32:39.539Z,1.83
2023-01-07T10:37:43.387Z,2.90
2023-01-07T10:43:04.044Z,2.92
2023-01-07T10:48:25.926Z,0.85
2023-01-07T10:53:39.996Z,3.53
2023-01-07T10:58:45.281Z,3.15
2023-01-07T11:03:50.773Z,3.28
2023-01-07T11:08:53.353Z,1.67
2023-01-07T11:14:03.083Z,1.95
2023-01-07T11:19:10.714Z,1.75
2023-01-07T11:24:34.391Z,1.50
2023-01-07T11:34:59.802Z,2.45
2023-01-07T11:40:13.877Z,2.25
2023-01-07T11:45:15.998Z,5.65
2023-01-07T11:50:34.665Z,4.47
2023-01-07T11:55:37.584Z,5.57
2023-01-07T12:00:40.124Z,4.03
2023-01-07T12:05:45.180Z,4.45
2023-01-07T12:10:55.241Z,2.55
2023-01-07T12:16:04.653Z,5.72
2023-01-07T12:21:31.886Z,4.85
2023-01-07T12:26:51.613Z,2.87
2023-01-07T12:32:12.615Z,2.10
2023-01-07T12:37:20.636Z,3.20
2023-01-07T12:42:28.023Z,3.12
2023-01-07T12:47:37.191Z,4.20
2023-01-07T12:52:57.827Z,3.12
2023-01-07T12:58:13.014Z,4.30
2023-01-07T13:03:29.301Z,3.53
2023-01-07T13:08:40.022Z,4.25
2023-01-07T13:13:53.943Z,2.95
2023-01-07T13:18:56.143Z,1.58
2023-01-07T13:24:54.729Z,2.03
2023-01-07T13:30:09.590Z,4.25
2023-01-07T13:35:28.868Z,1.27
2023-01-07T13:40:40.296Z,4.70
2023-01-07T13:45:50.596Z,3.15
2023-01-07T13:51:01.072Z,1.20
2023-01-07T13:56:18.498Z,5.45
2023-01-07T14:01:28.941Z,2.45
2023-01-07T14:06:46.854Z,2.47
2023-01-07T14:12:07.527Z,1.50
2023-01-07T14:17:42.738Z,1.98
2023-01-07T14:23:23.206Z,2.80
2023-01-07T14:28:44.263Z,3.78
2023-01-07T14:33:58.499Z,1.87
2023-01-07T14:39:00.693Z,4.22
2023-01-07T14:44:24.657Z,1.52
2023-01-07T14:49:32.906Z,2.55
2023-01-07T14:54:59.115Z,3.80
2023-01-07T15:00:19.313Z,1.95
2023-01-07T15:05:21.356Z,4.95
2023-01-07T15:10:48.648Z,1.87
2023-01-07T15:16:01.024Z,2.50
2023-01-07T15:21:39.346Z,3.25
2023-01-07T15:26:48.892Z,2.85
2023-01-07T15:32:28.592Z,1.48
2023-01-07T15:37:30.776Z,3.55
2023-01-07T15:42:32.956Z,2.28
2023-01-07T15:47:41.603Z,2.37
2023-01-07T15:52:49.917Z,3.17
2023-01-07T15:57:56.837Z,2.67
2023-01-07T16:03:00.798Z,7.43
2023-01-07T16:08:03.056Z,6.33
2023-01-07T16:13:18.134Z,4.40
2023-01-07T16:18:20.672Z,4.87
2023-01-07T16:23:29.228Z,5.15
2023-01-07T16:28:37.188Z,4.40
2023-01-07T16:33:41.851Z,3.87
2023-01-07T16:38:45.933Z,3.97
2023-01-07T16:43:48.563Z,8.40
2023-01-07T16:49:09.313Z,11.50
2023-01-07T16:54:19.529Z,4.40
2023-01-07T16:59:24.946Z,4.30
2023-01-07T17:04:30.067Z,8.85
2023-01-07T17:09:35.986Z,8.60
2023-01-07T17:14:41.145Z,8.80
2023-01-07T17:20:11.408Z,10.20
2023-01-07T17:25:15.322Z,7.33
2023-01-07T17:30:20.481Z,9.25
2023-01-07T17:35:24.673Z,12.45
2023-01-07T17:40:27.211Z,11.10
2023-01-07T17:45:29.590Z,11.68
2023-01-07T17:50:36.802Z,10.13
2023-01-07T17:55:38.991Z,9.45
2023-01-07T18:00:41.234Z,7.50
2023-01-07T18:05:43.367Z,7.72
2023-01-07T18:11:04.641Z,11.02
2023-01-07T18:16:10.684Z,5.50
2023-01-07T18:21:12.905Z,4.75
2023-01-07T18:26:16.128Z,3.97
2023-01-07T18:31:18.306Z,4.80
2023-01-07T18:36:20.446Z,5.18
2023-01-07T18:41:22.674Z,8.75
2023-01-07T18:46:24.804Z,7.93
2023-01-07T18:51:27.441Z,7.80
2023-01-07T19:01:31.674Z,5.70
2023-01-07T19:06:34.276Z,8.63
2023-01-07T19:11:38.308Z,4.28
2023-01-07T19:16:40.530Z,5.70
2023-01-07T19:21:43.442Z,7.03
2023-01-07T19:26:46.899Z,12.35
2023-01-07T19:31:49.018Z,13.45
2023-01-07T19:36:51.542Z,11.10
2023-01-07T19:41:53.706Z,9.70
2023-01-07T19:46:55.804Z,11.50
2023-01-07T19:51:57.925Z,9.63
2023-01-07T19:57:00.101Z,11.40
2023-01-07T20:02:03.515Z,9.07
2023-01-07T20:07:05.799Z,7.20
2023-01-07T20:12:08.023Z,8.45
2023-01-07T20:17:10.174Z,9.65
2023-01-07T20:22:12.293Z,7.93
2023-01-07T20:27:14.467Z,6.62
2023-01-07T20:32:18.968Z,9.43
2023-01-07T20:37:23.995Z,8.55
2023-01-07T20:42:27.097Z,7.95
2023-01-07T20:47:29.275Z,8.85
2023-01-07T20:52:31.417Z,11.80
2023-01-07T20:57:33.561Z,10.63
2023-01-07T21:02:35.860Z,13.05
2023-01-07T21:07:38.196Z,10.40
2023-01-07T21:12:40.341Z,11.73
2023-01-07T21:17:43.328Z,10.90
2023-01-07T21:22:47.664Z,10.37
2023-01-07T21:27:49.927Z,12.30
2023-01-07T21:32:52.104Z,11.10
2023-01-07T21:37:55.038Z,9.75
2023-01-07T21:42:57.177Z,9.35
2023-01-07T21:47:59.339Z,9.20
2023-01-07T21:53:01.504Z,9.68
2023-01-07T21:58:03.625Z,8.57
2023-01-07T22:03:05.777Z,10.10
2023-01-07T22:08:09.076Z,11.63
2023-01-07T22:13:11.340Z,8.90
2023-01-07T22:18:13.921Z,4.18
2023-01-07T22:23:19.274Z,31.70
2023-01-07T22:28:23.551Z,9.50
2023-01-07T22:33:25.709Z,13.30
2023-01-07T22:38:28.665Z,11.35
2023-01-07T22:43:30.900Z,156.55
2023-01-07T22:48:36.163Z,112.28
2023-01-07T22:53:38.635Z,50.50
2023-01-07T22:58:41.019Z,16.30
2023-01-07T23:03:44.320Z,12.57
2023-01-07T23:08:46.643Z,6.35
2023-01-07T23:13:48.714Z,6.03
2023-01-07T23:18:50.793Z,5.20
2023-01-07T23:23:52.917Z,3.35
2023-01-07T23:28:55.187Z,3.22
2023-01-07T23:33:57.342Z,3.58
2023-01-07T23:38:59.440Z,5.18
2023-01-07T23:44:01.583Z,3.75
2023-01-07T23:49:03.720Z,4.47
2023-01-07T23:54:06.226Z,9.23
2023-01-07T23:59:10.008Z,4.22
